Flight Number: EUR2348 Duration: 1:10
Departure: Krakow Balice (EPKK) at 21:30 Distance: 330 Nm
Arrival: Munich Int'l (EDDM) at 22:40 Equipment: CRJ700

Weather Information
Krakow, Poland (EPKK) 50-05N 019-48E 237M Aug 17, 2018 - 05:00 PM EDT / 2018.08.17 2100 UTC
Wind: Variable at 2 MPH (2 KT):0
Visibility: greater than 7 mile(s):0 Temperature: 66 F (19 C) Dew Point: 62 F (17 C) Relative Humidity: 88% Pressure (altimeter): 30.03 in. Hg (1017 hPa)
ob: EPKK 172100Z VRB02KT CAVOK 19/17 Q1017 cycle: 21
Sunrise: 03:38 Sunset: 17:51 (UTC)

Munchen, Germany (EDDM) 48-21N 011-47E Aug 17, 2018 - 04:50 PM EDT / 2018.08.17 2050 UTC
Wind: from the E (090 degrees) at 3 MPH (3 KT):0
Visibility: greater than 7 mile(s):0 Temperature: 60 F (16 C) Dew Point: 57 F (14 C) Relative Humidity: 87% Pressure (altimeter): 30.03 in. Hg (1017 hPa)
ob: EDDM 172050Z 09003KT CAVOK 16/14 Q1017 NOSIG cycle: 21
Sunrise: 04:14 Sunset: 18:19 (UTC)

TAF:2018/08/17 18:27 TAF EDDM 171700Z 1718/1824 VRB03KT CAVOK BECMG 1718/1720 27005KT BECMG 1812/1815 33005KT PROB30 TEMPO 1815/1820 TSRA BKN050CB

Previous Pireps for this route
Date Aircraft Flight time Fuel used Landing rate On time
2015-02-27CRJ70001.146164-163Yes
2015-04-05CRJ70001.176513-121Yes
2016-11-13CRJ7001.1234120Yes
(pireps marked green are flown by you)

Route map